Time;durP1;ratioP1;P1;durP2;ratioP2;P2;SDS_P1;SDS_P2;PMS_P1;PMS_P2;Temp;Humidity;BMP_temperature;BMP_pressure;BME280_temperature;BME280_humidity;BME280_pressure;Samples;Min_cycle;Max_cycle;Signal;HPM_P1;HPM_P2
2022/04/21 00:04:24;;;;;;;;;;;;;;;10.43;52.69629;101638.8;;;;-76
2022/04/21 00:09:24;;;;;;;;;;;;;;;10.39;53.08105;101637.8;;;;-75
2022/04/21 00:14:24;;;;;;;;;;;;;;;10.34;52.66211;101633.6;;;;-77
2022/04/21 00:19:13;;;;;;;8;3.2;;;;;;;;;;;;;-75
2022/04/21 00:19:24;;;;;;;;;;;;;;;10.29;52.76855;101630.7;;;;-78
2022/04/21 00:24:23;;;;;;;;;;;;;;;10.25;52.80664;101622.5;;;;-76
2022/04/21 00:29:23;;;;;;;;;;;;;;;10.2;53.14844;101627.3;;;;-77
2022/04/21 00:34:36;;;;;;;;;;;;;;;10.17;53.04199;101626;;;;-75
2022/04/21 00:39:24;;;;;;;;;;;;;;;10.12;52.9248;101621;;;;-81
2022/04/21 00:44:26;;;;;;;;;;;;;;;10.08;52.73145;101617.6;;;;-83
2022/04/21 00:49:23;;;;;;;6.2;3.2;;;;;;;;;;;;;-83
2022/04/21 00:49:34;;;;;;;;;;;;;;;10.02;52.76953;101607.3;;;;-79
2022/04/21 00:54:26;;;;;;;;;;;;;;;10;52.76563;101605.7;;;;-82
2022/04/21 00:59:29;;;;;;;;;;;;;;;9.93;52.90234;101608.4;;;;-83
2022/04/21 01:09:25;;;;;;;;;;;;;;;9.86;53.28418;101610.6;;;;-80
2022/04/21 01:14:25;;;;;;;;;;;;;;;9.83;52.90137;101613.5;;;;-83
2022/04/21 01:19:20;;;;;;;5.2;3;;;;;;;;;;;;;-83
2022/04/21 01:19:30;;;;;;;;;;;;;;;9.76;53.50586;101605;;;;-81
2022/04/21 01:24:26;;;;;;;;;;;;;;;9.77;53.70703;101612.1;;;;-82
2022/04/21 01:29:29;;;;;;;;;;;;;;;9.73;53.23535;101613.1;;;;-80
2022/04/21 01:34:24;;;;;;;;;;;;;;;9.7;53.00781;101609.2;;;;-81
2022/04/21 01:44:25;;;;;;;;;;;;;;;9.61;53.23047;101602.3;;;;-83
2022/04/21 01:49:15;;;;;;;5.3;2.8;;;;;;;;;;;;;-83
2022/04/21 01:49:25;;;;;;;;;;;;;;;9.51;53.31836;101588.2;;;;-82
2022/04/21 01:54:24;;;;;;;;;;;;;;;9.53;53.36621;101595;;;;-83
2022/04/21 01:59:25;;;;;;;;;;;;;;;9.5;53.20703;101591.6;;;;-83
2022/04/21 02:04:24;;;;;;;;;;;;;;;9.47;53.17969;101590.6;;;;-83
2022/04/21 02:09:24;;;;;;;;;;;;;;;9.43;53.4541;101594.2;;;;-82
2022/04/21 02:14:27;;;;;;;;;;;;;;;9.39;53.14941;101592.8;;;;-82
2022/04/21 02:19:16;;;;;;;6.6;2.6;;;;;;;;;;;;;-82
2022/04/21 02:19:32;;;;;;;;;;;;;;;9.34;53.01953;101582.3;;;;-81
2022/04/21 02:24:26;;;;;;;;;;;;;;;9.32;53.17285;101580.9;;;;-84
2022/04/21 02:29:26;;;;;;;;;;;;;;;9.28;53.06934;101580.1;;;;-81
2022/04/21 02:34:28;;;;;;;;;;;;;;;9.26;52.97656;101575.9;;;;-82
2022/04/21 02:39:24;;;;;;;;;;;;;;;9.22;52.91699;101577.3;;;;-85
2022/04/21 02:44:25;;;;;;;;;;;;;;;9.16;53.06445;101577.8;;;;-82
2022/04/21 02:49:23;;;;;;;6.9;2.8;;;;;;;;;;;;;-80
2022/04/21 02:49:36;;;;;;;;;;;;;;;9.07;53.02051;101564.7;;;;-79
2022/04/21 02:59:25;;;;;;;;;;;;;;;9.05;53.18457;101568;;;;-82
2022/04/21 03:04:26;;;;;;;;;;;;;;;9.02;53.35938;101563.8;;;;-82
2022/04/21 03:09:24;;;;;;;;;;;;;;;9;53.40039;101562.4;;;;-82
2022/04/21 03:14:25;;;;;;;;;;;;;;;8.97;53.21973;101566.6;;;;-82
2022/04/21 03:19:19;;;;;;;6;2.7;;;;;;;;;;;;;-82
2022/04/21 03:19:28;;;;;;;;;;;;;;;8.85;53.18262;101554.5;;;;-81
2022/04/21 03:24:24;;;;;;;;;;;;;;;8.89;52.9873;101568.1;;;;-83
2022/04/21 03:29:37;;;;;;;;;;;;;;;8.87;52.97363;101575;;;;-80
2022/04/21 03:34:26;;;;;;;;;;;;;;;8.82;52.8457;101575.6;;;;-81
2022/04/21 03:39:25;;;;;;;;;;;;;;;8.79;52.6416;101564.3;;;;-83
2022/04/21 03:44:26;;;;;;;;;;;;;;;8.71;52.52148;101564.5;;;;-81
2022/04/21 03:49:20;;;;;;;5.2;2.5;;;;;;;;;;;;;-81
2022/04/21 03:49:33;;;;;;;;;;;;;;;8.58;52.36035;101553.7;;;;-83
2022/04/21 03:54:24;;;;;;;;;;;;;;;8.59;52.42969;101572.2;;;;-84
2022/04/21 03:59:25;;;;;;;;;;;;;;;8.5;52.38379;101568.5;;;;-82
2022/04/21 04:04:26;;;;;;;;;;;;;;;8.49;52.27246;101571.4;;;;-81
2022/04/21 04:14:26;;;;;;;;;;;;;;;8.36;52.19043;101572.1;;;;-83
2022/04/21 04:19:19;;;;;;;5.7;2.3;;;;;;;;;;;;;-82
2022/04/21 04:19:29;;;;;;;;;;;;;;;8.27;52.14551;101572.5;;;;-83
2022/04/21 04:24:26;;;;;;;;;;;;;;;8.21;52.20605;101575.6;;;;-84
2022/04/21 04:29:26;;;;;;;;;;;;;;;8.13;52.34082;101574.2;;;;-81
2022/04/21 04:34:26;;;;;;;;;;;;;;;8.06;52.2207;101578.9;;;;-83
2022/04/21 04:39:29;;;;;;;;;;;;;;;7.99;52.25586;101580.7;;;;-81
2022/04/21 04:44:35;;;;;;;;;;;;;;;7.94;52.30566;101589.4;;;;-82
2022/04/21 04:49:20;;;;;;;4.9;2.2;;;;;;;;;;;;;-81
2022/04/21 04:49:32;;;;;;;;;;;;;;;7.82;52.31348;101587.6;;;;-80
2022/04/21 04:54:25;;;;;;;;;;;;;;;7.8;52.54395;101599.9;;;;-80
2022/04/21 04:59:27;;;;;;;;;;;;;;;7.81;52.94336;101604.5;;;;-82
2022/04/21 05:04:24;;;;;;;;;;;;;;;7.82;53.13281;101607.8;;;;-81
2022/04/21 05:09:29;;;;;;;;;;;;;;;7.87;53.04004;101606;;;;-82
2022/04/21 05:14:30;;;;;;;;;;;;;;;7.93;53.45898;101607.4;;;;-82
2022/04/21 05:19:21;;;;;;;5.5;2.5;;;;;;;;;;;;;-81
2022/04/21 05:19:31;;;;;;;;;;;;;;;7.93;53.60156;101595.5;;;;-82
2022/04/21 05:24:29;;;;;;;;;;;;;;;8.05;53.39453;101602.7;;;;-82
2022/04/21 05:34:33;;;;;;;;;;;;;;;8.18;53.67676;101608.1;;;;-81
2022/04/21 05:39:27;;;;;;;;;;;;;;;8.26;53.70898;101610.6;;;;-83
2022/04/21 05:44:25;;;;;;;;;;;;;;;8.34;53.81934;101603.4;;;;-82
2022/04/21 05:49:22;;;;;;;6.3;3.1;;;;;;;;;;;;;-82
2022/04/21 05:49:37;;;;;;;;;;;;;;;8.56;54.3125;101585.9;;;;-80
2022/04/21 05:54:25;;;;;;;;;;;;;;;9.22;53.01563;101602.9;;;;-81
2022/04/21 05:59:37;;;;;;;;;;;;;;;9.85;51.73438;101593.9;;;;-83
2022/04/21 06:04:30;;;;;;;;;;;;;;;10.38;51.17285;101589.7;;;;-81
2022/04/21 06:09:38;;;;;;;;;;;;;;;10.88;50.25977;101588.3;;;;-81
2022/04/21 06:14:28;;;;;;;;;;;;;;;11.35;49.43066;101586.1;;;;-81
2022/04/21 06:19:23;;;;;;;4.8;2.8;;;;;;;;;;;;;-82
2022/04/21 06:19:36;;;;;;;;;;;;;;;11.74;48.76953;101581;;;;-80
2022/04/21 06:24:23;;;;;;;;;;;;;;;12.14;48.28613;101582.5;;;;-81
2022/04/21 06:29:31;;;;;;;;;;;;;;;12.46;47.88477;101580.3;;;;-81
2022/04/21 06:34:24;;;;;;;;;;;;;;;12.79;47.51563;101579.2;;;;-81
2022/04/21 06:39:28;;;;;;;;;;;;;;;13.11;46.97852;101576.8;;;;-81
2022/04/21 06:49:24;;;;;;;7.6;3.5;;;;;;;;;;;;;-82
2022/04/21 06:49:36;;;;;;;;;;;;;;;13.77;46.0918;101581.5;;;;-79
2022/04/21 06:54:34;;;;;;;;;;;;;;;14.08;45.79785;101592.8;;;;-81
2022/04/21 06:59:25;;;;;;;;;;;;;;;14.41;45.45996;101589;;;;-82
2022/04/21 07:04:27;;;;;;;;;;;;;;;14.69;44.99316;101583.5;;;;-82
2022/04/21 07:09:26;;;;;;;;;;;;;;;14.97;44.625;101588.7;;;;-84
2022/04/21 07:14:24;;;;;;;;;;;;;;;15.24;44.17773;101589.7;;;;-77
2022/04/21 07:19:26;;;;;;;;;;;;;;;15.5;44.33984;101592.7;;;;-75
2022/04/21 07:19:35;;;;;;;6.5;3.7;;;;;;;;;;;;;-75
2022/04/21 07:24:27;;;;;;;;;;;;;;;15.76;43.9248;101592.4;;;;-77
2022/04/21 07:29:25;;;;;;;;;;;;;;;16.04;43.81738;101591.3;;;;-75
2022/04/21 07:34:23;;;;;;;;;;;;;;;16.31;43.96875;101591;;;;-77
2022/04/21 07:39:23;;;;;;;;;;;;;;;16.54;43.78613;101599;;;;-77
2022/04/21 07:44:24;;;;;;;;;;;;;;;16.75;43.74023;101596.5;;;;-77
2022/04/21 07:49:51;;;;;;;7.1;4.1;;;;;;;;;;;;;-77
2022/04/21 07:54:23;;;;;;;;;;;;;;;17.22;43.46777;101597.8;;;;-76
2022/04/21 07:59:26;;;;;;;;;;;;;;;17.38;43.01855;101592.2;;;;-78
2022/04/21 08:04:24;;;;;;;;;;;;;;;17.55;43.00098;101592.7;;;;-84
2022/04/21 08:09:24;;;;;;;;;;;;;;;17.76;42.90723;101594.4;;;;-83
2022/04/21 08:14:24;;;;;;;;;;;;;;;18.03;42.66113;101599;;;;-83
2022/04/21 08:19:24;;;;;;;;;;;;;;;18.31;42.19727;101603.7;;;;-85
2022/04/21 08:19:33;;;;;;;8;4.2;;;;;;;;;;;;;-85
2022/04/21 08:34:25;;;;;;;;;;;;;;;18.91;40.72656;101596.8;;;;-83
2022/04/21 08:39:24;;;;;;;;;;;;;;;19.1;40.14941;101595.4;;;;-85
2022/04/21 08:44:30;;;;;;;;;;;;;;;19.31;39.90723;101589.9;;;;-85
2022/04/21 08:49:29;;;;;;;;;;;;;;;19.62;39.61426;101590.1;;;;-84
2022/04/21 08:49:40;;;;;;;6;3.1;;;;;;;;;;;;;-84
2022/04/21 08:54:30;;;;;;;;;;;;;;;19.82;39.01465;101592.6;;;;-85
2022/04/21 08:59:25;;;;;;;;;;;;;;;19.97;38.64941;101591.9;;;;-85
2022/04/21 09:04:25;;;;;;;;;;;;;;;20.09;38.23633;101586.6;;;;-84
2022/04/21 09:09:34;;;;;;;;;;;;;;;20.25;37.96387;101584.2;;;;-84
2022/04/21 09:14:25;;;;;;;;;;;;;;;20.42;37.62305;101581.4;;;;-83
2022/04/21 09:19:36;;;;;;;4.8;2.9;;;;;;;;;;;;;-84
2022/04/21 09:20:47;;;;;;;;;;;;;;;20.71;37.44043;101576;;;;-85
2022/04/21 09:25:54;;;;;;;;;;;;;;;20.99;37.20117;101576.8;;;;-83
2022/04/21 09:30:49;;;;;;;;;;;;;;;21.26;36.9707;101580.9;;;;-83
2022/04/21 09:35:47;;;;;;;;;;;;;;;21.51;36.46191;101573.4;;;;-83
2022/04/21 09:40:49;;;;;;;;;;;;;;;21.75;36.03418;101578.1;;;;-84
2022/04/21 09:49:42;;;;;;;4.6;2.7;;;;;;;;;;;;;-84
2022/04/21 09:50:49;;;;;;;;;;;;;;;22.16;35.47949;101572.7;;;;-82
2022/04/21 09:55:45;;;;;;;;;;;;;;;22.39;35.5791;101566.7;;;;-83
2022/04/21 10:00:45;;;;;;;;;;;;;;;22.67;35.16309;101567.6;;;;-82
2022/04/21 10:05:45;;;;;;;;;;;;;;;22.84;34.77246;101563.2;;;;-83
2022/04/21 10:10:45;;;;;;;;;;;;;;;23.05;34.60449;101552.9;;;;-84
2022/04/21 10:15:46;;;;;;;;;;;;;;;23.29;34.21875;101549.6;;;;-82
2022/04/21 10:19:38;;;;;;;5.4;2.6;;;;;;;;;;;;;-82
2022/04/21 10:20:56;;;;;;;;;;;;;;;23.46;34.19727;101541.5;;;;-83
2022/04/21 10:26:01;;;;;;;;;;;;;;;23.73;33.37402;101536.3;;;;-84
2022/04/21 10:30:56;;;;;;;;;;;;;;;23.87;32.99219;101528.5;;;;-84
2022/04/21 10:36:00;;;;;;;;;;;;;;;23.95;32.67383;101527.1;;;;-84
2022/04/21 10:41:00;;;;;;;;;;;;;;;24.07;33.21484;101521.9;;;;-84
2022/04/21 10:45:47;;;;;;;;;;;;;;;24.34;32.37793;101517.3;;;;-82
2022/04/21 10:50:05;;;;;;;4.2;2.4;;;;;;;;;;;;;-83
2022/04/21 10:50:49;;;;;;;;;;;;;;;24.61;31.71289;101512.2;;;;-84
2022/04/21 11:00:47;;;;;;;;;;;;;;;24.87;31.22168;101503.4;;;;-82
2022/04/21 11:05:45;;;;;;;;;;;;;;;24.86;31.5459;101497.9;;;;-83
2022/04/21 11:10:48;;;;;;;;;;;;;;;24.93;31.3418;101489.1;;;;-81
2022/04/21 11:15:53;;;;;;;;;;;;;;;25.16;31.17188;101493.4;;;;-83
2022/04/21 11:19:54;;;;;;;5.4;2.5;;;;;;;;;;;;;-78
2022/04/21 11:20:47;;;;;;;;;;;;;;;25.2;31.09375;101488.1;;;;-82
2022/04/21 11:25:46;;;;;;;;;;;;;;;25.4;31.69922;101477.4;;;;-82
2022/04/21 11:30:46;;;;;;;;;;;;;;;25.57;30.90918;101482.9;;;;-83
2022/04/21 11:35:48;;;;;;;;;;;;;;;25.71;31.39648;101473.7;;;;-84
2022/04/21 11:40:54;;;;;;;;;;;;;;;25.8;31.04297;101470;;;;-84
2022/04/21 11:45:46;;;;;;;;;;;;;;;25.86;30.56934;101465.2;;;;-84
2022/04/21 11:50:00;;;;;;;3.4;2.2;;;;;;;;;;;;;-85
2022/04/21 11:50:46;;;;;;;;;;;;;;;25.96;30.51758;101469.6;;;;-83
2022/04/21 11:55:45;;;;;;;;;;;;;;;25.98;30.68262;101463.5;;;;-73
2022/04/21 12:10:45;;;;;;;;;;;;;;;26.29;30.33105;101456.5;;;;-74
2022/04/21 12:15:45;;;;;;;;;;;;;;;26.28;30.41211;101457.3;;;;-73
2022/04/21 12:19:53;;;;;;;4.1;2.1;;;;;;;;;;;;;-74
2022/04/21 12:20:58;;;;;;;;;;;;;;;26.49;30.69434;101454.9;;;;-74
2022/04/21 12:25:45;;;;;;;;;;;;;;;26.59;30.69043;101436.3;;;;-74
2022/04/21 12:30:46;;;;;;;;;;;;;;;26.81;30.58789;101442.9;;;;-73
2022/04/21 12:35:49;;;;;;;;;;;;;;;26.99;30.66895;101436.7;;;;-74
2022/04/21 12:40:47;;;;;;;;;;;;;;;27.09;30.47852;101430.3;;;;-73
2022/04/21 12:45:45;;;;;;;;;;;;;;;27.22;30.69727;101422.8;;;;-76
2022/04/21 12:50:03;;;;;;;2.9;1.7;;;;;;;;;;;;;-76
2022/04/21 12:50:45;;;;;;;;;;;;;;;27.33;30.4834;101419.6;;;;-74
2022/04/21 12:55:45;;;;;;;;;;;;;;;27.52;30.08789;101411.3;;;;-75
2022/04/21 13:00:46;;;;;;;;;;;;;;;27.63;28.96191;101412.3;;;;-75
2022/04/21 13:05:52;;;;;;;;;;;;;;;27.69;29.02441;101395.4;;;;-75
2022/04/21 13:10:45;;;;;;;;;;;;;;;27.73;28.66406;101375.4;;;;-75
2022/04/21 13:15:45;;;;;;;;;;;;;;;27.82;29.23145;101374.5;;;;-75
2022/04/21 13:20:01;;;;;;;3.9;1.7;;;;;;;;;;;;;-75
2022/04/21 13:25:45;;;;;;;;;;;;;;;27.91;28.13867;101372.3;;;;-75
2022/04/21 13:30:45;;;;;;;;;;;;;;;27.72;27.71777;101373.7;;;;-74
2022/04/21 13:35:45;;;;;;;;;;;;;;;27.64;27.71289;101366.5;;;;-74
2022/04/21 13:40:45;;;;;;;;;;;;;;;27.71;28.46484;101360.1;;;;-74
2022/04/21 13:45:45;;;;;;;;;;;;;;;27.79;27.81641;101354.6;;;;-73
2022/04/21 13:50:05;;;;;;;4.9;1.7;;;;;;;;;;;;;-74
2022/04/21 13:50:46;;;;;;;;;;;;;;;27.72;27.54297;101340.3;;;;-74
2022/04/21 13:55:45;;;;;;;;;;;;;;;27.73;27.29883;101344.1;;;;-74
2022/04/21 14:00:45;;;;;;;;;;;;;;;27.81;27.16309;101337.2;;;;-74
2022/04/21 14:05:45;;;;;;;;;;;;;;;27.73;27.22754;101331.4;;;;-76
2022/04/21 14:10:45;;;;;;;;;;;;;;;27.67;27.72754;101327.1;;;;-74
2022/04/21 14:15:46;;;;;;;;;;;;;;;27.8;27.76953;101321.8;;;;-75
2022/04/21 14:20:10;;;;;;;4.5;1.7;;;;;;;;;;;;;-76
2022/04/21 14:20:46;;;;;;;;;;;;;;;27.68;27.29492;101323;;;;-75
2022/04/21 14:25:45;;;;;;;;;;;;;;;27.64;27.28125;101324.8;;;;-74
2022/04/21 14:30:45;;;;;;;;;;;;;;;27.52;27.23828;101308.6;;;;-74
2022/04/21 14:35:45;;;;;;;;;;;;;;;27.45;27.62012;101300.1;;;;-74
2022/04/21 14:45:46;;;;;;;;;;;;;;;27.53;27.51953;101300.6;;;;-76
2022/04/21 14:50:18;;;;;;;3.6;1.9;;;;;;;;;;;;;-75
2022/04/21 14:50:45;;;;;;;;;;;;;;;27.51;27.21387;101291;;;;-75
2022/04/21 14:55:45;;;;;;;;;;;;;;;27.33;27.27344;101292.5;;;;-77
2022/04/21 15:00:45;;;;;;;;;;;;;;;27.24;27.14063;101291.9;;;;-75
2022/04/21 15:05:45;;;;;;;;;;;;;;;27.18;27.44043;101292.9;;;;-83
2022/04/21 15:10:45;;;;;;;;;;;;;;;27.05;27.07031;101277.4;;;;-83
2022/04/21 15:15:45;;;;;;;;;;;;;;;26.89;27.08398;101278.3;;;;-84
2022/04/21 15:20:18;;;;;;;2.9;1.6;;;;;;;;;;;;;-83
2022/04/21 15:20:46;;;;;;;;;;;;;;;26.8;27.75488;101279.8;;;;-84
2022/04/21 15:25:45;;;;;;;;;;;;;;;26.57;27.81055;101275.6;;;;-84
2022/04/21 15:30:45;;;;;;;;;;;;;;;26.2;28.28809;101271.8;;;;-82
2022/04/21 15:35:46;;;;;;;;;;;;;;;25.86;28.89551;101274.1;;;;-84
2022/04/21 15:40:46;;;;;;;;;;;;;;;25.5;28.98926;101275.6;;;;-83
2022/04/21 15:45:47;;;;;;;;;;;;;;;25.17;29.19922;101273;;;;-84
2022/04/21 15:50:22;;;;;;;3.5;2;;;;;;;;;;;;;-81
2022/04/21 15:50:45;;;;;;;;;;;;;;;24.88;29.45898;101275.4;;;;-81
2022/04/21 16:00:47;;;;;;;;;;;;;;;24.28;30.01074;101271.3;;;;-81
2022/04/21 16:05:45;;;;;;;;;;;;;;;24.03;30.30664;101266.7;;;;-82
2022/04/21 16:10:51;;;;;;;;;;;;;;;23.78;30.63672;101264.4;;;;-81
2022/04/21 16:15:51;;;;;;;;;;;;;;;23.59;30.83203;101265.3;;;;-82
2022/04/21 16:20:30;;;;;;;5.1;2.5;;;;;;;;;;;;;-84
2022/04/21 16:20:45;;;;;;;;;;;;;;;23.38;31.45313;101263.6;;;;-83
2022/04/21 16:25:46;;;;;;;;;;;;;;;23.09;31.83691;101263.7;;;;-83
2022/04/21 16:30:47;;;;;;;;;;;;;;;22.83;32.28027;101261.5;;;;-83
2022/04/21 16:35:46;;;;;;;;;;;;;;;22.49;32.80957;101268;;;;-85
2022/04/21 16:40:46;;;;;;;;;;;;;;;22.14;33.2207;101259.7;;;;-82
2022/04/21 16:45:45;;;;;;;;;;;;;;;21.87;33.62695;101259;;;;-84
2022/04/21 16:50:29;;;;;;;4.8;2.8;;;;;;;;;;;;;-83
2022/04/21 16:50:46;;;;;;;;;;;;;;;21.61;33.90625;101267.8;;;;-85
2022/04/21 16:55:56;;;;;;;;;;;;;;;21.34;34.41504;101263.4;;;;-83
2022/04/21 17:05:47;;;;;;;;;;;;;;;21.18;34.8623;101257.5;;;;-86
2022/04/21 17:10:48;;;;;;;;;;;;;;;21.06;35.19727;101264.6;;;;-80
2022/04/21 17:15:51;;;;;;;;;;;;;;;20.97;35.32813;101260.3;;;;-85
2022/04/21 17:20:36;;;;;;;6.1;3;;;;;;;;;;;;;-84
2022/04/21 17:20:47;;;;;;;;;;;;;;;20.83;35.60254;101248;;;;-84
2022/04/21 17:25:45;;;;;;;;;;;;;;;20.8;35.63477;101259;;;;-83
2022/04/21 17:30:49;;;;;;;;;;;;;;;20.64;36.18457;101261.3;;;;-83
2022/04/21 17:35:46;;;;;;;;;;;;;;;20.48;36.39063;101257.3;;;;-83
2022/04/21 17:40:47;;;;;;;;;;;;;;;20.34;36.46973;101258.5;;;;-83
2022/04/21 17:45:45;;;;;;;;;;;;;;;20.09;36.76953;101258;;;;-84
2022/04/21 17:50:36;;;;;;;5.4;3.4;;;;;;;;;;;;;-82
2022/04/21 17:50:47;;;;;;;;;;;;;;;19.81;37.18262;101256.9;;;;-80
2022/04/21 17:55:47;;;;;;;;;;;;;;;19.62;37.36035;101265.2;;;;-82
2022/04/21 18:00:49;;;;;;;;;;;;;;;19.39;37.44434;101261.3;;;;-86
2022/04/21 18:05:48;;;;;;;;;;;;;;;19.14;37.75488;101268.2;;;;-85
2022/04/21 18:10:45;;;;;;;;;;;;;;;18.91;38.03223;101266;;;;-84
2022/04/21 18:15:45;;;;;;;;;;;;;;;18.65;38.64844;101268.2;;;;-83
2022/04/21 18:20:38;;;;;;;6.3;3.7;;;;;;;;;;;;;-84
2022/04/21 18:20:50;;;;;;;;;;;;;;;18.33;39.05371;101269;;;;-82
2022/04/21 18:25:57;;;;;;;;;;;;;;;18.13;39.35645;101270.3;;;;-85
2022/04/21 18:30:46;;;;;;;;;;;;;;;17.92;39.61035;101273;;;;-84
2022/04/21 18:36:00;;;;;;;;;;;;;;;17.68;40.30566;101276.1;;;;-83
2022/04/21 18:40:45;;;;;;;;;;;;;;;17.46;40.53613;101274.3;;;;-85
2022/04/21 18:45:56;;;;;;;;;;;;;;;17.26;40.93848;101276;;;;-83
2022/04/21 18:50:40;;;;;;;7.8;4.5;;;;;;;;;;;;;-85
2022/04/21 18:50:54;;;;;;;;;;;;;;;16.95;41.4209;101268.4;;;;-83
2022/04/21 18:55:46;;;;;;;;;;;;;;;16.86;41.92383;101281.6;;;;-83
2022/04/21 19:00:49;;;;;;;;;;;;;;;16.64;42.68457;101278.7;;;;-84
2022/04/21 19:05:45;;;;;;;;;;;;;;;16.42;43.40039;101284.2;;;;-83
2022/04/21 19:10:45;;;;;;;;;;;;;;;16.26;43.55566;101286.1;;;;-83
2022/04/21 19:15:45;;;;;;;;;;;;;;;16.14;43.75879;101286;;;;-78
2022/04/21 19:20:42;;;;;;;7.9;5;;;;;;;;;;;;;-83
2022/04/21 19:20:54;;;;;;;;;;;;;;;15.93;44.32715;101262.7;;;;-80
2022/04/21 19:25:47;;;;;;;;;;;;;;;15.86;44.17285;101278.5;;;;-85
2022/04/21 19:30:51;;;;;;;;;;;;;;;15.76;44.15137;101276.2;;;;-84
2022/04/21 19:35:45;;;;;;;;;;;;;;;15.65;44.60352;101276.2;;;;-84
2022/04/21 19:40:50;;;;;;;;;;;;;;;15.51;45.23438;101271.7;;;;-84
2022/04/21 19:45:48;;;;;;;;;;;;;;;15.38;45.57129;101268.7;;;;-83
2022/04/21 19:50:44;;;;;;;9.5;5.5;;;;;;;;;;;;;-85
2022/04/21 19:51:03;;;;;;;;;;;;;;;15.2;46.05078;101260.3;;;;-80
2022/04/21 19:55:45;;;;;;;;;;;;;;;15.16;46.37402;101263.8;;;;-82
2022/04/21 20:00:46;;;;;;;;;;;;;;;15.08;45.99316;101262.2;;;;-83
2022/04/21 20:10:49;;;;;;;;;;;;;;;14.9;46.77539;101253.6;;;;-83
2022/04/21 20:15:45;;;;;;;;;;;;;;;14.83;46.50781;101254.5;;;;-84
2022/04/21 20:30:47;;;;;;;;;;;;;;;14.64;46.82617;101240.1;;;;-83
2022/04/21 20:35:46;;;;;;;;;;;;;;;14.6;46.98047;101235.4;;;;-84
2022/04/21 20:40:46;;;;;;;;;;;;;;;14.52;47.36621;101238.1;;;;-84
2022/04/21 20:45:47;;;;;;;;;;;;;;;14.45;47.49316;101239;;;;-84
2022/04/21 20:50:47;;;;;;;;;;;;;;;14.39;47.69043;101242.6;;;;-84
2022/04/21 20:51:02;;;;;;;8.5;4.6;;;;;;;;;;;;;-84
2022/04/21 20:55:48;;;;;;;;;;;;;;;14.32;47.84082;101241;;;;-85
2022/04/21 21:00:50;;;;;;;;;;;;;;;14.27;47.67676;101241.4;;;;-84
2022/04/21 21:05:45;;;;;;;;;;;;;;;14.21;47.97461;101234.7;;;;-82
2022/04/21 21:10:48;;;;;;;;;;;;;;;14.14;48.0918;101236.1;;;;-82
2022/04/21 21:15:45;;;;;;;;;;;;;;;14.08;48.52344;101231.4;;;;-83
2022/04/21 21:20:46;;;;;;;;;;;;;;;14;48.64941;101232.5;;;;-84
2022/04/21 21:20:56;;;;;;;9.6;4.6;;;;;;;;;;;;;-84
2022/04/21 21:25:45;;;;;;;;;;;;;;;13.94;48.66699;101223.1;;;;-84
2022/04/21 21:30:46;;;;;;;;;;;;;;;13.85;48.75684;101226.9;;;;-83
2022/04/21 21:35:45;;;;;;;;;;;;;;;13.76;48.8252;101223.4;;;;-82
2022/04/21 21:40:47;;;;;;;;;;;;;;;13.65;49.33105;101230.6;;;;-83
2022/04/21 21:45:45;;;;;;;;;;;;;;;13.57;49.64844;101232.5;;;;-81
2022/04/21 21:55:54;;;;;;;;;;;;;;;13.46;50.02832;101230.1;;;;-83
2022/04/21 22:00:58;;;;;;;;;;;;;;;13.4;50.60547;101220.4;;;;-84
2022/04/21 22:05:46;;;;;;;;;;;;;;;13.39;50.42578;101221.4;;;;-82
2022/04/21 22:10:45;;;;;;;;;;;;;;;13.36;50.82715;101223.2;;;;-85
2022/04/21 22:15:45;;;;;;;;;;;;;;;13.34;50.95996;101222.3;;;;-83
2022/04/21 22:20:45;;;;;;;;;;;;;;;13.3;51.66211;101222.7;;;;-82
2022/04/21 22:20:55;;;;;;;9;4.7;;;;;;;;;;;;;-82
2022/04/21 22:25:46;;;;;;;;;;;;;;;13.26;51.87012;101222.3;;;;-82
2022/04/21 22:30:46;;;;;;;;;;;;;;;13.23;51.96777;101222.9;;;;-84
2022/04/21 22:35:50;;;;;;;;;;;;;;;13.18;52.05176;101224.4;;;;-84
2022/04/21 22:40:52;;;;;;;;;;;;;;;13.1;52.94043;101223.5;;;;-83
2022/04/21 22:45:45;;;;;;;;;;;;;;;13.06;53.03711;101227;;;;-84
2022/04/21 22:50:45;;;;;;;;;;;;;;;13.02;53.04297;101223.4;;;;-83
2022/04/21 22:50:54;;;;;;;7.1;4.4;;;;;;;;;;;;;-83
2022/04/21 22:55:46;;;;;;;;;;;;;;;12.99;53.20898;101224.5;;;;-83
2022/04/21 23:00:45;;;;;;;;;;;;;;;12.96;53.32813;101219.2;;;;-82
2022/04/21 23:05:47;;;;;;;;;;;;;;;12.94;52.9209;101215.4;;;;-84
2022/04/21 23:15:45;;;;;;;;;;;;;;;12.88;53.23828;101212.7;;;;-84
2022/04/21 23:20:47;;;;;;;;;;;;;;;12.81;53.4541;101208;;;;-84
2022/04/21 23:20:56;;;;;;;9.4;4.4;;;;;;;;;;;;;-84
2022/04/21 23:25:46;;;;;;;;;;;;;;;12.77;53.33691;101206.3;;;;-82
2022/04/21 23:30:51;;;;;;;;;;;;;;;12.73;53.55664;101207.7;;;;-84
2022/04/21 23:35:45;;;;;;;;;;;;;;;12.67;53.52637;101211;;;;-84
2022/04/21 23:40:49;;;;;;;;;;;;;;;12.61;53.5752;101213.7;;;;-83
2022/04/21 23:45:45;;;;;;;;;;;;;;;12.53;54.22656;101204.2;;;;-84
2022/04/21 23:50:45;;;;;;;;;;;;;;;12.49;54.21094;101203.4;;;;-82
2022/04/21 23:50:55;;;;;;;7.8;3.9;;;;;;;;;;;;;-82
2022/04/21 23:55:46;;;;;;;;;;;;;;;12.44;53.99219;101198.8;;;;-83
